Time;durP1;ratioP1;P1;durP2;ratioP2;P2;SDS_P1;SDS_P2;PMS_P1;PMS_P2;Temp;Humidity;BMP_temperature;BMP_pressure;BME280_temperature;BME280_humidity;BME280_pressure;Samples;Min_cycle;Max_cycle;Signal;HPM_P1;HPM_P2
2024/01/13 00:00:26;;;;;;;11.77;6.40;;;-6.50;98.40;;;;;;2032590;28;20234;-64
2024/01/13 00:01:26;;;;;;;10.90;5.53;;;-6.60;98.20;;;;;;2041272;28;20250;-63
2024/01/13 00:02:27;;;;;;;8.63;5.37;;;-6.60;97.90;;;;;;2042477;28;20577;-63
2024/01/13 00:03:28;;;;;;;9.07;5.53;;;-6.60;97.70;;;;;;2040900;28;20232;-63
2024/01/13 00:04:28;;;;;;;8.73;5.63;;;-6.60;97.60;;;;;;2046157;28;20231;-63
2024/01/13 00:05:29;;;;;;;9.50;5.90;;;-6.60;97.10;;;;;;2044117;28;20708;-63
2024/01/13 00:06:30;;;;;;;13.60;7.13;;;-6.70;96.90;;;;;;2039842;28;20232;-62
2024/01/13 00:07:31;;;;;;;11.37;5.73;;;-6.70;97.00;;;;;;2031347;28;20236;-63
2024/01/13 00:08:32;;;;;;;9.60;5.28;;;-6.70;97.20;;;;;;2042134;28;20250;-62
2024/01/13 00:09:32;;;;;;;10.27;6.03;;;-6.70;97.20;;;;;;2045746;28;20689;-63
2024/01/13 00:10:34;;;;;;;10.00;5.80;;;-6.70;97.70;;;;;;2045025;28;20606;-62
2024/01/13 00:11:35;;;;;;;10.77;6.07;;;-6.60;98.50;;;;;;2044214;28;20234;-63
2024/01/13 00:12:35;;;;;;;11.90;5.87;;;-6.40;98.20;;;;;;2039344;28;20235;-63
2024/01/13 00:13:36;;;;;;;11.60;6.13;;;-6.60;97.70;;;;;;2037915;28;20239;-63
2024/01/13 00:14:37;;;;;;;11.90;6.20;;;-6.50;98.20;;;;;;2042572;28;20323;-63
2024/01/13 00:15:37;;;;;;;11.27;6.37;;;-6.50;98.70;;;;;;2045665;28;20314;-63
2024/01/13 00:16:38;;;;;;;9.90;6.20;;;-6.60;98.90;;;;;;2042158;28;20231;-62
2024/01/13 00:17:39;;;;;;;8.63;5.40;;;-6.60;99.10;;;;;;2045776;28;21008;-63
2024/01/13 00:18:39;;;;;;;10.13;5.77;;;-6.70;97.90;;;;;;2045872;28;20234;-63
2024/01/13 00:19:40;;;;;;;10.37;5.87;;;-6.70;97.90;;;;;;2037713;29;20295;-63
2024/01/13 00:20:41;;;;;;;11.73;6.13;;;-6.70;98.50;;;;;;2045364;28;20743;-63
2024/01/13 00:21:41;;;;;;;13.23;6.97;;;-6.50;99.50;;;;;;2044709;28;20241;-63
2024/01/13 00:22:47;;;;;;;10.63;6.50;;;-6.50;99.90;;;;;;2044073;28;20228;-63
2024/01/13 00:23:48;;;;;;;11.57;6.65;;;-6.60;99.80;;;;;;2043679;28;20716;-63
2024/01/13 00:24:48;;;;;;;11.00;6.27;;;-6.50;99.90;;;;;;2042669;28;20227;-62
2024/01/13 00:25:49;;;;;;;8.90;5.57;;;-6.50;99.90;;;;;;2045306;28;20223;-63
2024/01/13 00:26:50;;;;;;;10.80;5.80;;;-6.40;99.90;;;;;;2045117;28;20236;-63
2024/01/13 00:27:50;;;;;;;12.73;6.03;;;-6.50;99.90;;;;;;2046007;28;20253;-63
2024/01/13 00:28:51;;;;;;;12.00;6.20;;;-6.60;99.20;;;;;;2042778;28;20223;-63
2024/01/13 00:29:52;;;;;;;9.77;5.50;;;-6.60;99.10;;;;;;2050172;28;20647;-65
2024/01/13 00:30:52;;;;;;;10.47;5.20;;;-6.50;98.70;;;;;;2050361;28;20282;-63
2024/01/13 00:31:53;;;;;;;11.77;5.60;;;-6.70;97.60;;;;;;2043117;28;20736;-63
2024/01/13 00:32:54;;;;;;;12.30;6.47;;;-6.70;97.50;;;;;;2043533;28;20270;-63
2024/01/13 00:33:54;;;;;;;11.03;6.10;;;-6.70;97.50;;;;;;2045040;28;20310;-63
2024/01/13 00:34:55;;;;;;;10.17;5.77;;;-6.60;98.40;;;;;;2045002;28;20263;-62
2024/01/13 00:35:55;;;;;;;10.80;6.07;;;-6.60;98.80;;;;;;2044539;28;20643;-64
2024/01/13 00:36:56;;;;;;;12.13;5.27;;;-6.70;98.90;;;;;;2046736;28;20232;-63
2024/01/13 00:37:57;;;;;;;8.83;5.37;;;-6.80;97.60;;;;;;2045872;28;20708;-63
2024/01/13 00:38:58;;;;;;;9.53;5.13;;;-6.70;98.70;;;;;;2045483;28;20228;-63
2024/01/13 00:39:59;;;;;;;9.10;5.50;;;-6.70;99.70;;;;;;2045450;28;20231;-63
2024/01/13 00:41:00;;;;;;;10.63;5.70;;;-6.70;99.40;;;;;;2044682;28;20963;-63
2024/01/13 00:42:00;;;;;;;9.77;5.47;;;-6.80;98.70;;;;;;2047590;28;20778;-63
2024/01/13 00:43:01;;;;;;;8.90;5.07;;;-6.80;98.30;;;;;;2037686;29;20224;-62
2024/01/13 00:44:01;;;;;;;9.03;5.50;;;-6.70;98.30;;;;;;2050312;28;20187;-63
2024/01/13 00:45:02;;;;;;;9.87;5.40;;;-6.70;99.00;;;;;;2045328;28;20188;-63
2024/01/13 00:46:04;;;;;;;11.73;5.93;;;-6.70;98.70;;;;;;2044179;28;20773;-63
2024/01/13 00:47:05;;;;;;;9.57;5.85;;;-6.70;98.90;;;;;;2035791;29;20465;-63
2024/01/13 00:48:05;;;;;;;11.83;6.17;;;-6.70;98.60;;;;;;2046519;28;20190;-62
2024/01/13 00:49:06;;;;;;;9.20;5.03;;;-6.70;98.70;;;;;;2046380;28;20180;-61
2024/01/13 00:50:07;;;;;;;11.23;6.07;;;-6.90;97.60;;;;;;2045061;28;20332;-63
2024/01/13 00:51:11;;;;;;;12.23;6.20;;;-6.90;97.70;;;;;;2047809;28;20211;-63
2024/01/13 00:52:12;;;;;;;9.45;5.10;;;-6.90;97.90;;;;;;2035918;28;20189;-64
2024/01/13 00:53:12;;;;;;;10.33;5.30;;;-6.80;97.90;;;;;;2042216;28;20191;-62
2024/01/13 00:54:13;;;;;;;7.63;5.00;;;-6.70;98.20;;;;;;2044844;28;20191;-63
2024/01/13 00:55:14;;;;;;;10.90;5.57;;;-6.80;97.90;;;;;;2046056;28;20188;-63
2024/01/13 00:56:15;;;;;;;8.65;5.32;;;-6.90;97.30;;;;;;2037028;29;20199;-64
2024/01/13 00:57:15;;;;;;;11.07;5.73;;;-6.90;97.20;;;;;;2035807;28;20251;-63
2024/01/13 00:58:16;;;;;;;12.80;5.73;;;-6.80;97.90;;;;;;2046334;28;20689;-63
2024/01/13 00:59:16;;;;;;;10.07;5.23;;;-6.80;98.70;;;;;;2045478;28;20191;-64
2024/01/13 01:00:17;;;;;;;8.77;5.23;;;-6.90;98.40;;;;;;2046438;28;20199;-63
2024/01/13 01:01:18;;;;;;;9.87;5.57;;;-6.90;98.30;;;;;;2045665;28;20200;-63
2024/01/13 01:02:19;;;;;;;9.83;5.70;;;-6.80;98.20;;;;;;2040351;28;20196;-63
2024/01/13 01:03:19;;;;;;;8.70;4.97;;;-6.80;98.20;;;;;;2039130;28;20474;-63
2024/01/13 01:04:20;;;;;;;9.70;5.33;;;-6.80;98.70;;;;;;2052952;28;20261;-63
2024/01/13 01:05:21;;;;;;;12.90;6.00;;;-6.80;98.70;;;;;;2043222;28;20331;-64
2024/01/13 01:06:21;;;;;;;10.10;5.73;;;-6.70;99.20;;;;;;2036937;28;20238;-63
2024/01/13 01:07:22;;;;;;;5.37;4.20;;;-6.80;99.60;;;;;;2040639;28;20236;-63
2024/01/13 01:08:23;;;;;;;9.50;5.40;;;-6.90;99.00;;;;;;2039891;28;20359;-63
2024/01/13 01:09:24;;;;;;;7.77;4.67;;;-6.90;99.60;;;;;;2046524;28;20613;-63
2024/01/13 01:10:24;;;;;;;8.00;4.50;;;-6.90;99.50;;;;;;2047019;28;20269;-63
2024/01/13 01:11:26;;;;;;;8.67;5.07;;;-7.00;98.70;;;;;;2034369;29;20225;-62
2024/01/13 01:12:27;;;;;;;7.80;4.60;;;-7.10;98.20;;;;;;2041385;28;20228;-63
2024/01/13 01:13:27;;;;;;;7.80;3.90;;;-7.00;98.90;;;;;;2044405;28;20368;-62
2024/01/13 01:14:28;;;;;;;11.10;4.90;;;-7.00;99.30;;;;;;2040015;28;20661;-63
2024/01/13 01:15:29;;;;;;;7.40;4.03;;;-7.00;99.30;;;;;;2043103;28;20256;-64
2024/01/13 01:16:30;;;;;;;7.73;4.27;;;-7.10;98.70;;;;;;2042282;28;20303;-64
2024/01/13 01:17:30;;;;;;;8.77;4.70;;;-7.00;98.60;;;;;;2030154;29;20702;-63
2024/01/13 01:18:31;;;;;;;7.13;4.70;;;-6.90;98.80;;;;;;2037369;29;20228;-64
2024/01/13 01:19:32;;;;;;;8.63;4.63;;;-6.90;99.30;;;;;;2043076;28;20243;-63
2024/01/13 01:20:33;;;;;;;9.27;4.73;;;-6.90;98.50;;;;;;2046532;28;20501;-63
2024/01/13 01:21:33;;;;;;;8.63;4.73;;;-6.90;98.40;;;;;;2046055;28;20270;-63
2024/01/13 01:22:34;;;;;;;12.33;4.80;;;-6.80;98.30;;;;;;2041181;28;20241;-63
2024/01/13 01:23:35;;;;;;;7.23;4.40;;;-6.80;98.60;;;;;;2051663;28;20297;-64
2024/01/13 01:24:35;;;;;;;7.23;4.47;;;-6.90;97.90;;;;;;2043926;28;20236;-63
2024/01/13 01:25:36;;;;;;;9.40;4.97;;;-6.80;98.30;;;;;;2043610;28;20252;-64
2024/01/13 01:26:37;;;;;;;6.83;4.10;;;-6.70;98.20;;;;;;2046134;28;20239;-64
2024/01/13 01:27:37;;;;;;;8.80;4.67;;;-6.80;98.50;;;;;;2045172;28;20235;-62
2024/01/13 01:28:38;;;;;;;8.37;4.70;;;-6.80;98.90;;;;;;2040994;28;20232;-63
2024/01/13 01:29:39;;;;;;;9.20;4.93;;;-6.90;98.50;;;;;;2040511;28;20232;-63
2024/01/13 01:30:39;;;;;;;9.50;4.07;;;-6.90;98.00;;;;;;2043363;28;20725;-63
2024/01/13 01:31:40;;;;;;;8.23;4.27;;;-6.90;97.80;;;;;;2046692;28;20229;-63
2024/01/13 01:32:41;;;;;;;6.60;4.00;;;-6.90;97.50;;;;;;2046505;28;20265;-63
2024/01/13 01:33:41;;;;;;;9.30;4.60;;;-7.00;96.50;;;;;;2045940;28;20661;-63
2024/01/13 01:34:42;;;;;;;8.20;4.27;;;-7.10;97.00;;;;;;2045251;28;20235;-63
2024/01/13 01:35:43;;;;;;;7.37;4.53;;;-7.00;98.20;;;;;;2044203;28;20244;-63
2024/01/13 01:36:43;;;;;;;9.10;4.57;;;-6.80;98.90;;;;;;2043188;28;20726;-63
2024/01/13 01:37:44;;;;;;;7.27;4.13;;;-6.90;99.40;;;;;;2037868;29;20232;-63
2024/01/13 01:38:44;;;;;;;8.33;4.90;;;-6.90;99.80;;;;;;2045661;28;20231;-63
2024/01/13 01:39:45;;;;;;;8.60;4.40;;;-6.90;99.90;;;;;;2046705;28;20232;-63
2024/01/13 01:40:54;;;;;;;7.53;3.97;;;-7.00;99.50;;;;;;2039579;28;20939;-63
2024/01/13 01:41:55;;;;;;;9.27;4.65;;;-7.10;99.10;;;;;;2046977;28;20235;-64
2024/01/13 01:42:56;;;;;;;5.93;3.33;;;-7.10;98.70;;;;;;2046281;28;20357;-63
2024/01/13 01:43:56;;;;;;;7.07;3.83;;;-7.00;98.30;;;;;;2045534;28;20679;-63
2024/01/13 01:44:57;;;;;;;7.70;4.10;;;-7.10;97.40;;;;;;2044883;28;20314;-63
2024/01/13 01:46:01;;;;;;;7.03;4.47;;;-7.20;97.00;;;;;;2052285;28;20227;-63
2024/01/13 01:47:04;;;;;;;6.60;3.90;;;-7.20;97.40;;;;;;2050631;28;20792;-63
2024/01/13 01:48:07;;;;;;;6.63;3.88;;;-7.10;97.70;;;;;;2050334;28;20614;-63
2024/01/13 01:49:14;;;;;;;5.85;3.83;;;-7.00;98.60;;;;;;2045863;28;20183;-63
2024/01/13 01:50:15;;;;;;;5.68;3.78;;;-7.00;98.50;;;;;;2051791;28;20190;-63
2024/01/13 01:51:17;;;;;;;8.23;3.90;;;-7.10;97.90;;;;;;2051404;28;20569;-63
2024/01/13 01:52:18;;;;;;;7.47;3.88;;;-7.10;97.70;;;;;;2043658;28;20187;-63
2024/01/13 01:53:20;;;;;;;8.53;4.37;;;-7.00;97.40;;;;;;2035849;28;20185;-63
2024/01/13 01:54:20;;;;;;;7.32;3.40;;;-7.00;97.40;;;;;;2028458;29;20189;-63
2024/01/13 01:55:21;;;;;;;5.57;3.37;;;-7.10;96.70;;;;;;2044965;28;20591;-63
2024/01/13 01:56:26;;;;;;;7.47;4.33;;;-7.30;95.90;;;;;;2043940;28;20710;-63
2024/01/13 01:57:27;;;;;;;6.20;3.58;;;-7.20;97.00;;;;;;2043314;28;20357;-63
2024/01/13 01:58:28;;;;;;;5.60;3.50;;;-7.20;97.10;;;;;;2039134;28;20389;-63
2024/01/13 01:59:29;;;;;;;6.10;3.50;;;-7.20;96.70;;;;;;2042705;28;20228;-64
2024/01/13 02:00:31;;;;;;;9.07;4.07;;;-7.30;96.70;;;;;;2041496;28;20315;-63
2024/01/13 02:01:32;;;;;;;6.75;3.83;;;-7.20;97.10;;;;;;2033110;29;20260;-63
2024/01/13 02:02:33;;;;;;;6.27;3.60;;;-7.20;97.00;;;;;;2043068;28;20661;-63
2024/01/13 02:03:34;;;;;;;6.25;3.75;;;-7.10;97.50;;;;;;2037889;28;20235;-63
2024/01/13 02:04:35;;;;;;;6.25;3.60;;;-7.00;98.10;;;;;;2041355;28;20226;-63
2024/01/13 02:05:37;;;;;;;6.37;3.03;;;-7.10;98.60;;;;;;2045467;28;20243;-63
2024/01/13 02:06:37;;;;;;;6.82;3.58;;;-7.10;98.10;;;;;;2034394;28;20610;-64
2024/01/13 02:07:39;;;;;;;6.37;3.73;;;-7.10;97.80;;;;;;2033309;29;20236;-65
2024/01/13 02:08:41;;;;;;;5.95;3.97;;;-7.00;97.40;;;;;;2042119;28;20391;-61
2024/01/13 02:09:42;;;;;;;7.57;3.95;;;-7.10;97.10;;;;;;2043262;28;20236;-64
2024/01/13 02:10:43;;;;;;;6.32;3.60;;;-7.10;96.90;;;;;;2038318;29;20338;-63
2024/01/13 02:11:45;;;;;;;7.00;3.40;;;-7.10;97.10;;;;;;2046244;28;20268;-63
2024/01/13 02:12:46;;;;;;;5.70;3.60;;;-7.00;97.70;;;;;;2045230;28;20677;-63
2024/01/13 02:13:48;;;;;;;6.95;3.78;;;-7.00;97.70;;;;;;2047302;28;20239;-63
2024/01/13 02:14:50;;;;;;;6.90;3.78;;;-7.10;97.60;;;;;;2043030;28;20385;-63
2024/01/13 02:15:51;;;;;;;5.25;3.50;;;-7.00;97.40;;;;;;2045976;28;20223;-63
2024/01/13 02:16:53;;;;;;;7.10;4.07;;;-7.00;97.60;;;;;;2046555;28;20274;-63
2024/01/13 02:17:53;;;;;;;7.18;3.55;;;-7.00;97.80;;;;;;2045869;28;20242;-63
2024/01/13 02:18:54;;;;;;;5.87;3.20;;;-7.10;97.80;;;;;;2042739;28;20681;-63
2024/01/13 02:19:55;;;;;;;5.63;3.17;;;-7.10;98.20;;;;;;2043010;28;20228;-63
2024/01/13 02:20:55;;;;;;;6.83;3.90;;;-7.10;98.70;;;;;;2043691;28;20280;-63
2024/01/13 02:21:56;;;;;;;5.23;3.67;;;-7.20;99.20;;;;;;2045409;28;20733;-63
2024/01/13 02:22:57;;;;;;;5.70;3.93;;;-7.10;99.80;;;;;;2044365;28;20236;-63
2024/01/13 02:23:57;;;;;;;6.57;3.70;;;-7.10;99.70;;;;;;2044506;28;20245;-63
2024/01/13 02:25:03;;;;;;;5.23;3.20;;;-7.20;99.50;;;;;;2045822;28;20231;-63
2024/01/13 02:26:04;;;;;;;5.07;3.55;;;-7.20;99.10;;;;;;2046203;28;20224;-63
2024/01/13 02:27:05;;;;;;;7.20;3.70;;;-7.10;99.00;;;;;;2046711;28;20682;-62
2024/01/13 02:28:06;;;;;;;6.40;4.13;;;-7.10;99.20;;;;;;2046194;28;20176;-62
2024/01/13 02:29:06;;;;;;;4.57;3.47;;;-7.10;99.40;;;;;;2044594;28;20667;-63
2024/01/13 02:30:08;;;;;;;4.67;3.17;;;-7.10;99.80;;;;;;2046793;28;20207;-63
2024/01/13 02:31:08;;;;;;;7.53;3.88;;;-7.20;99.50;;;;;;2043879;28;20179;-62
2024/01/13 02:32:09;;;;;;;5.00;3.17;;;-7.30;98.60;;;;;;2043872;28;20223;-63
2024/01/13 02:33:10;;;;;;;5.17;3.30;;;-7.20;98.60;;;;;;2044817;28;20168;-63
2024/01/13 02:34:11;;;;;;;7.00;3.30;;;-7.20;98.90;;;;;;2044219;28;20213;-63
2024/01/13 02:35:11;;;;;;;5.13;3.33;;;-7.20;98.90;;;;;;2043060;28;20195;-62
2024/01/13 02:36:12;;;;;;;7.00;3.33;;;-7.20;98.40;;;;;;2043351;28;20192;-63
2024/01/13 02:37:13;;;;;;;7.03;3.20;;;-7.20;98.20;;;;;;2044051;28;20199;-62
2024/01/13 02:38:13;;;;;;;6.23;3.90;;;-7.20;98.10;;;;;;2045794;28;20567;-63
2024/01/13 02:39:14;;;;;;;6.63;3.73;;;-7.10;97.40;;;;;;2035951;28;20838;-63
2024/01/13 02:40:15;;;;;;;6.37;3.50;;;-7.10;97.20;;;;;;2031461;28;20247;-63
2024/01/13 02:41:15;;;;;;;5.73;3.13;;;-7.10;97.30;;;;;;2041015;28;20219;-63
2024/01/13 02:42:16;;;;;;;4.60;3.00;;;-7.20;96.60;;;;;;2052809;28;20190;-63
2024/01/13 02:43:17;;;;;;;5.20;3.20;;;-7.30;96.40;;;;;;2051000;28;20202;-63
2024/01/13 02:44:17;;;;;;;7.07;3.60;;;-7.20;96.80;;;;;;2044317;28;20219;-63
2024/01/13 02:45:18;;;;;;;5.13;2.60;;;-7.20;96.90;;;;;;2043796;28;20818;-63
2024/01/13 02:46:19;;;;;;;5.23;3.27;;;-7.20;97.00;;;;;;2042769;28;20251;-63
2024/01/13 02:47:33;;;;;;;7.17;3.40;;;-7.20;97.10;;;;;;2041885;28;20208;-64
2024/01/13 02:48:43;;;;;;;4.90;3.10;;;-7.20;97.50;;;;;;2042397;28;20219;-63
2024/01/13 02:49:43;;;;;;;7.28;3.28;;;-7.20;97.80;;;;;;2032856;28;20244;-63
2024/01/13 02:50:53;;;;;;;6.87;3.03;;;-7.20;97.70;;;;;;2044314;28;20247;-63
2024/01/13 02:51:54;;;;;;;5.40;3.22;;;-7.20;97.50;;;;;;2042331;28;20728;-63
2024/01/13 02:52:55;;;;;;;5.17;3.13;;;-7.10;97.60;;;;;;2041306;28;20236;-63
2024/01/13 02:53:56;;;;;;;4.43;2.88;;;-7.10;98.30;;;;;;2042677;28;20361;-63
2024/01/13 02:54:56;;;;;;;6.10;2.73;;;-7.20;97.80;;;;;;2045364;28;20869;-63
2024/01/13 02:55:57;;;;;;;6.10;3.13;;;-7.30;97.20;;;;;;2043504;28;20666;-63
2024/01/13 02:56:59;;;;;;;4.43;2.83;;;-7.30;97.70;;;;;;2044807;28;20355;-63
2024/01/13 02:58:00;;;;;;;5.07;3.00;;;-7.30;97.50;;;;;;2042779;28;20267;-63
2024/01/13 02:59:01;;;;;;;5.28;3.00;;;-7.20;98.10;;;;;;2044904;28;20259;-62
2024/01/13 03:00:04;;;;;;;5.87;2.97;;;-7.40;97.10;;;;;;2045224;28;20247;-63
2024/01/13 03:01:06;;;;;;;4.75;2.88;;;-7.30;97.10;;;;;;2044784;28;20195;-63
2024/01/13 03:02:07;;;;;;;5.57;3.38;;;-7.30;97.20;;;;;;2044822;28;20214;-63
2024/01/13 03:03:08;;;;;;;4.33;2.67;;;-7.20;97.20;;;;;;2042523;28;20634;-63
2024/01/13 03:04:08;;;;;;;4.40;2.80;;;-7.20;96.70;;;;;;2042192;28;20187;-63
2024/01/13 03:05:09;;;;;;;3.67;2.57;;;-7.30;96.30;;;;;;2042224;28;20180;-63
2024/01/13 03:06:11;;;;;;;5.25;3.20;;;-7.10;96.70;;;;;;2044301;28;20909;-63
2024/01/13 03:07:11;;;;;;;5.78;2.95;;;-7.20;97.40;;;;;;2035672;29;20280;-62
2024/01/13 03:08:12;;;;;;;3.97;2.87;;;-7.20;97.60;;;;;;2042530;28;20588;-63
2024/01/13 03:09:13;;;;;;;5.53;3.27;;;-7.20;97.60;;;;;;2042778;28;20183;-64
2024/01/13 03:10:13;;;;;;;4.93;2.87;;;-7.20;98.30;;;;;;2043276;28;20184;-63
2024/01/13 03:11:14;;;;;;;4.30;2.33;;;-7.30;97.70;;;;;;2045894;28;20190;-63
2024/01/13 03:12:15;;;;;;;4.00;3.00;;;-7.30;97.40;;;;;;2045276;28;20215;-63
2024/01/13 03:13:15;;;;;;;5.03;2.80;;;-7.30;97.10;;;;;;2043760;28;20645;-63
2024/01/13 03:14:16;;;;;;;4.87;3.10;;;-7.30;96.70;;;;;;2043106;28;20246;-63
2024/01/13 03:15:17;;;;;;;5.23;2.87;;;-7.20;96.50;;;;;;2041283;28;20214;-63
2024/01/13 03:16:17;;;;;;;6.47;3.00;;;-7.20;96.30;;;;;;2042742;28;20227;-63
2024/01/13 03:17:18;;;;;;;4.73;3.00;;;-7.20;97.10;;;;;;2045301;28;20255;-63
2024/01/13 03:18:19;;;;;;;4.00;2.50;;;-7.20;97.30;;;;;;2030633;28;20578;-61
2024/01/13 03:19:19;;;;;;;5.30;2.60;;;-7.20;97.80;;;;;;2044992;28;20230;-63
2024/01/13 03:20:20;;;;;;;5.70;3.20;;;-7.20;97.50;;;;;;2041203;28;22589;-63
2024/01/13 03:21:21;;;;;;;3.90;2.37;;;-7.20;97.50;;;;;;2043825;28;20322;-63
2024/01/13 03:22:21;;;;;;;4.87;2.73;;;-7.20;97.70;;;;;;2043513;28;20338;-63
2024/01/13 03:23:22;;;;;;;4.57;2.47;;;-7.20;97.30;;;;;;2044198;28;20723;-63
2024/01/13 03:24:23;;;;;;;6.30;3.17;;;-7.20;97.30;;;;;;2043147;28;20235;-64
2024/01/13 03:25:23;;;;;;;4.73;3.00;;;-7.20;97.40;;;;;;2044785;28;20239;-63
2024/01/13 03:26:24;;;;;;;4.20;2.40;;;-7.20;97.20;;;;;;2042546;28;20277;-63
2024/01/13 03:27:25;;;;;;;5.47;3.00;;;-7.20;97.10;;;;;;2041373;28;20315;-63
2024/01/13 03:28:25;;;;;;;3.93;2.50;;;-7.20;97.90;;;;;;2040167;28;20244;-62
2024/01/13 03:29:26;;;;;;;4.37;2.43;;;-7.20;97.40;;;;;;2043546;28;20231;-63
2024/01/13 03:30:27;;;;;;;3.40;2.40;;;-7.30;97.00;;;;;;2039555;28;20717;-64
2024/01/13 03:31:27;;;;;;;4.97;2.50;;;-7.20;97.20;;;;;;2037945;28;20260;-63
2024/01/13 03:32:28;;;;;;;4.40;2.43;;;-7.20;97.40;;;;;;2051781;28;20242;-63
2024/01/13 03:33:29;;;;;;;2.87;2.20;;;-7.10;96.80;;;;;;2039590;28;20228;-63
2024/01/13 03:34:30;;;;;;;4.03;2.20;;;-7.30;96.90;;;;;;2040220;29;20232;-63
2024/01/13 03:35:31;;;;;;;4.87;2.43;;;-7.30;96.60;;;;;;2044985;28;20278;-63
2024/01/13 03:36:32;;;;;;;4.22;2.50;;;-7.30;96.80;;;;;;2034516;29;20229;-63
2024/01/13 03:37:32;;;;;;;3.83;2.17;;;-7.20;97.00;;;;;;2042406;28;20685;-63
2024/01/13 03:38:33;;;;;;;4.80;2.30;;;-7.30;96.30;;;;;;2044789;28;20228;-63
2024/01/13 03:39:34;;;;;;;4.17;2.70;;;-7.30;96.30;;;;;;2043162;28;20240;-63
2024/01/13 03:40:34;;;;;;;3.57;2.30;;;-7.20;96.70;;;;;;2043400;28;20231;-63
2024/01/13 03:41:35;;;;;;;3.53;2.20;;;-7.20;97.90;;;;;;2042954;28;20239;-63
2024/01/13 03:42:36;;;;;;;4.93;2.50;;;-7.10;99.30;;;;;;2037983;28;20327;-63
2024/01/13 03:43:36;;;;;;;5.90;2.60;;;-7.20;99.90;;;;;;2040646;28;20267;-64
2024/01/13 03:44:37;;;;;;;4.50;2.70;;;-7.20;99.90;;;;;;2044798;28;20223;-63
2024/01/13 03:45:38;;;;;;;4.83;2.80;;;-7.20;99.70;;;;;;2043727;28;20302;-62
2024/01/13 03:46:38;;;;;;;3.10;2.00;;;-7.20;99.90;;;;;;2044400;28;20298;-63
2024/01/13 03:47:40;;;;;;;3.57;2.00;;;-7.20;99.90;;;;;;2043514;28;20322;-63
2024/01/13 03:48:41;;;;;;;3.70;2.13;;;-7.30;99.20;;;;;;2040593;28;20271;-63
2024/01/13 03:49:42;;;;;;;3.40;2.13;;;-7.30;98.70;;;;;;2041286;28;20282;-60
2024/01/13 03:50:42;;;;;;;4.87;2.33;;;-7.30;98.40;;;;;;2045695;28;20231;-62
2024/01/13 03:51:43;;;;;;;4.07;2.23;;;-7.20;98.60;;;;;;2044883;28;20697;-63
2024/01/13 03:52:44;;;;;;;3.73;2.07;;;-7.20;98.00;;;;;;2042709;28;20232;-63
2024/01/13 03:53:45;;;;;;;4.97;2.60;;;-7.10;97.60;;;;;;2038222;28;20227;-63
2024/01/13 03:54:46;;;;;;;4.20;2.60;;;-7.20;97.70;;;;;;2041138;28;20242;-63
2024/01/13 03:55:46;;;;;;;3.30;2.07;;;-7.10;98.50;;;;;;2041149;28;20278;-64
2024/01/13 03:56:47;;;;;;;2.93;2.07;;;-7.10;99.20;;;;;;2043129;28;20232;-64
2024/01/13 03:57:48;;;;;;;3.90;2.20;;;-7.10;99.70;;;;;;2042903;28;20238;-63
2024/01/13 03:58:48;;;;;;;3.97;2.37;;;-7.10;99.80;;;;;;2043115;28;20610;-64
2024/01/13 03:59:49;;;;;;;3.50;1.90;;;-7.20;99.90;;;;;;2045248;28;20249;-64
2024/01/13 04:00:50;;;;;;;4.53;2.10;;;-7.20;99.80;;;;;;2045088;28;20233;-63
2024/01/13 04:01:50;;;;;;;4.53;2.33;;;-7.20;99.20;;;;;;2045389;28;20243;-64
2024/01/13 04:02:51;;;;;;;3.50;1.80;;;-7.10;99.30;;;;;;2044886;28;20247;-64
2024/01/13 04:03:52;;;;;;;3.30;2.10;;;-7.20;99.00;;;;;;2045174;28;20689;-64
2024/01/13 04:04:52;;;;;;;3.67;2.10;;;-7.30;98.90;;;;;;2042029;28;20327;-64
2024/01/13 04:05:53;;;;;;;5.60;2.50;;;-7.30;98.90;;;;;;2045029;28;20239;-64
2024/01/13 04:06:54;;;;;;;4.57;2.30;;;-7.20;98.90;;;;;;2044197;28;20238;-64
2024/01/13 04:07:54;;;;;;;4.97;2.40;;;-7.30;98.50;;;;;;2044914;28;20268;-64
2024/01/13 04:08:55;;;;;;;3.30;2.30;;;-7.20;98.90;;;;;;2044728;28;20769;-64
2024/01/13 04:09:56;;;;;;;4.97;2.70;;;-7.20;99.20;;;;;;2044019;28;20267;-64
2024/01/13 04:10:56;;;;;;;3.10;2.23;;;-7.20;99.00;;;;;;2046901;28;20247;-63
2024/01/13 04:11:57;;;;;;;3.33;2.17;;;-7.20;98.50;;;;;;2046161;28;20700;-63
2024/01/13 04:12:58;;;;;;;5.73;2.27;;;-7.20;98.20;;;;;;2045129;28;20239;-64
2024/01/13 04:13:58;;;;;;;5.93;3.00;;;-7.20;97.80;;;;;;2042723;28;20281;-63
2024/01/13 04:14:59;;;;;;;3.60;2.03;;;-7.20;97.70;;;;;;2039375;28;20236;-64
2024/01/13 04:16:00;;;;;;;3.13;2.20;;;-7.20;98.00;;;;;;2043222;28;20235;-64
2024/01/13 04:17:01;;;;;;;4.17;1.83;;;-7.20;98.10;;;;;;2047302;28;20615;-64
2024/01/13 04:18:01;;;;;;;4.03;2.10;;;-7.10;98.70;;;;;;2046094;28;20286;-63
2024/01/13 04:19:02;;;;;;;5.90;2.13;;;-7.30;98.60;;;;;;2047135;28;20286;-63
2024/01/13 04:20:03;;;;;;;4.27;1.97;;;-7.10;99.10;;;;;;2044022;28;20282;-64
2024/01/13 04:21:04;;;;;;;2.85;1.83;;;-7.30;98.50;;;;;;2035377;29;20238;-63
2024/01/13 04:22:05;;;;;;;3.40;2.00;;;-7.30;98.40;;;;;;2031245;29;20599;-62
2024/01/13 04:23:05;;;;;;;2.63;1.67;;;-7.20;98.70;;;;;;2046667;28;20612;-63
2024/01/13 04:24:06;;;;;;;1.87;1.70;;;-7.40;97.80;;;;;;2055238;28;20827;-63
2024/01/13 04:25:07;;;;;;;3.60;1.90;;;-7.40;97.70;;;;;;2052364;28;20210;-63
2024/01/13 04:26:08;;;;;;;4.93;2.17;;;-7.30;98.00;;;;;;2043704;28;20179;-64
2024/01/13 04:27:09;;;;;;;3.63;1.90;;;-7.30;97.70;;;;;;2043553;28;20646;-64
2024/01/13 04:28:09;;;;;;;3.70;2.13;;;-7.10;97.70;;;;;;2045897;28;20172;-63
2024/01/13 04:29:10;;;;;;;3.93;2.03;;;-7.10;98.00;;;;;;2043551;28;20280;-64
2024/01/13 04:30:12;;;;;;;2.73;2.00;;;-7.20;98.00;;;;;;2040764;28;20183;-62
2024/01/13 04:31:12;;;;;;;3.85;2.13;;;-7.30;97.80;;;;;;2043630;28;20209;-63
2024/01/13 04:32:13;;;;;;;2.87;1.90;;;-7.20;98.00;;;;;;2042521;28;20199;-64
2024/01/13 04:33:14;;;;;;;2.50;1.90;;;-7.20;97.90;;;;;;2033872;29;20188;-63
2024/01/13 04:34:14;;;;;;;4.00;2.20;;;-7.30;97.60;;;;;;2043319;28;20191;-64
2024/01/13 04:35:15;;;;;;;3.57;1.97;;;-7.20;97.70;;;;;;2042178;28;20188;-63
2024/01/13 04:36:16;;;;;;;3.07;2.00;;;-7.20;97.70;;;;;;2039337;28;20680;-64
2024/01/13 04:37:17;;;;;;;2.83;1.77;;;-7.30;97.30;;;;;;2040015;28;20616;-63
2024/01/13 04:38:17;;;;;;;2.60;1.80;;;-7.30;96.70;;;;;;2031504;29;20199;-63
2024/01/13 04:39:18;;;;;;;4.53;1.90;;;-7.30;96.20;;;;;;2031172;29;20744;-64
2024/01/13 04:40:19;;;;;;;3.23;1.77;;;-7.40;96.00;;;;;;2040867;28;20249;-63
2024/01/13 04:41:19;;;;;;;3.17;1.83;;;-7.30;96.20;;;;;;2044002;28;20187;-64
2024/01/13 04:42:20;;;;;;;2.97;1.80;;;-7.40;95.80;;;;;;2039043;28;20255;-64
2024/01/13 04:43:21;;;;;;;2.27;1.80;;;-7.30;96.30;;;;;;2030457;29;20326;-64
2024/01/13 04:44:21;;;;;;;3.37;1.57;;;-7.30;97.90;;;;;;2041004;28;20652;-64
2024/01/13 04:45:22;;;;;;;3.67;1.77;;;-7.40;98.20;;;;;;2043442;28;20239;-64
2024/01/13 04:46:23;;;;;;;2.23;1.60;;;-7.20;99.50;;;;;;2043982;28;20231;-63
2024/01/13 04:47:24;;;;;;;3.00;1.80;;;-7.40;99.90;;;;;;2034821;28;20239;-63
2024/01/13 04:48:25;;;;;;;2.75;1.98;;;-7.40;99.90;;;;;;2034479;28;20326;-64
2024/01/13 04:49:27;;;;;;;2.40;1.63;;;-7.40;99.30;;;;;;2045977;28;20625;-64
2024/01/13 04:50:27;;;;;;;1.85;1.38;;;-7.40;99.30;;;;;;2045613;28;20753;-64
2024/01/13 04:51:28;;;;;;;2.70;1.63;;;-7.30;99.00;;;;;;2042507;28;20279;-63
2024/01/13 04:52:28;;;;;;;3.27;1.93;;;-7.40;99.20;;;;;;2049467;28;20234;-64
2024/01/13 04:53:29;;;;;;;2.30;1.60;;;-7.30;99.50;;;;;;2047189;28;20611;-64
2024/01/13 04:54:30;;;;;;;2.27;1.80;;;-7.20;99.90;;;;;;2044834;28;20234;-63
2024/01/13 04:55:30;;;;;;;3.70;1.50;;;-7.20;99.90;;;;;;2039493;29;20267;-63
2024/01/13 04:56:31;;;;;;;2.70;1.60;;;-7.40;99.60;;;;;;2045668;28;20745;-64
2024/01/13 04:57:32;;;;;;;2.63;1.80;;;-7.40;99.60;;;;;;2054913;28;20277;-64
2024/01/13 04:58:32;;;;;;;2.60;1.40;;;-7.40;99.50;;;;;;2049147;28;20238;-64
2024/01/13 04:59:33;;;;;;;2.47;1.50;;;-7.40;99.60;;;;;;2041035;28;20636;-64
2024/01/13 05:00:35;;;;;;;2.80;1.47;;;-7.40;99.30;;;;;;2045347;28;20228;-64
2024/01/13 05:01:35;;;;;;;2.67;1.85;;;-7.40;99.40;;;;;;2046398;28;20237;-63
2024/01/13 05:02:36;;;;;;;4.70;1.87;;;-7.40;99.10;;;;;;2045619;28;20729;-64
2024/01/13 05:03:37;;;;;;;2.40;1.73;;;-7.20;99.30;;;;;;2040816;28;20240;-62
2024/01/13 05:04:39;;;;;;;2.10;1.50;;;-7.20;99.00;;;;;;2041056;28;20263;-65
2024/01/13 05:05:39;;;;;;;5.57;2.00;;;-7.40;98.50;;;;;;2045288;28;20278;-63
2024/01/13 05:06:40;;;;;;;2.90;2.00;;;-7.40;98.40;;;;;;2045878;28;20818;-63
2024/01/13 05:07:41;;;;;;;2.80;1.65;;;-7.40;98.70;;;;;;2045276;28;20231;-62
2024/01/13 05:08:42;;;;;;;2.33;1.60;;;-7.50;97.90;;;;;;2044449;28;20717;-63
2024/01/13 05:09:43;;;;;;;2.42;1.60;;;-7.30;98.40;;;;;;2045781;28;20856;-64
2024/01/13 05:10:43;;;;;;;2.20;1.50;;;-7.30;98.70;;;;;;2041501;28;20229;-63
2024/01/13 05:11:44;;;;;;;2.30;1.63;;;-7.30;99.20;;;;;;2046532;28;20232;-64
2024/01/13 05:12:45;;;;;;;4.37;1.50;;;-7.20;99.20;;;;;;2046216;28;20231;-64
2024/01/13 05:13:45;;;;;;;3.90;1.80;;;-7.20;99.10;;;;;;2044689;28;20282;-63
2024/01/13 05:14:46;;;;;;;2.40;1.60;;;-7.10;99.40;;;;;;2045539;28;20242;-64
2024/01/13 05:15:47;;;;;;;2.30;1.70;;;-7.30;98.70;;;;;;2045850;28;20231;-63
2024/01/13 05:16:48;;;;;;;2.50;1.47;;;-7.30;99.00;;;;;;2047089;28;20234;-63